Time;durP1;ratioP1;P1;durP2;ratioP2;P2;SDS_P1;SDS_P2;PMS_P1;PMS_P2;Temp;Humidity;BMP_temperature;BMP_pressure;BME280_temperature;BME280_humidity;BME280_pressure;Samples;Min_cycle;Max_cycle;Signal;HPM_P1;HPM_P2
2023/06/07 00:02:07;;;;;;;12.00;7.28;;;;;;;15.96;78.13;101952.31;5086635;28;20463;-68
2023/06/07 00:04:33;;;;;;;11.68;6.68;;;;;;;15.88;77.40;101936.75;5080642;28;20082;-68
2023/06/07 00:07:01;;;;;;;12.13;7.40;;;;;;;15.86;78.23;101951.75;5071515;28;20572;-67
2023/06/07 00:09:30;;;;;;;12.32;7.68;;;;;;;15.81;78.89;101951.00;5087493;28;20093;-67
2023/06/07 00:11:55;;;;;;;14.43;7.80;;;;;;;15.76;78.54;101955.50;5076058;28;20025;-68
2023/06/07 00:14:22;;;;;;;13.77;7.70;;;;;;;15.71;78.60;101957.41;5088090;28;20035;-68
2023/06/07 00:16:49;;;;;;;12.98;7.70;;;;;;;15.79;79.57;101960.66;5080481;28;20103;-68
2023/06/07 00:19:20;;;;;;;14.90;7.80;;;;;;;15.79;79.12;101950.16;5087299;28;20456;-68
2023/06/07 00:21:48;;;;;;;12.85;7.82;;;;;;;15.73;79.24;101950.31;5080432;28;20083;-68
2023/06/07 00:24:14;;;;;;;15.60;7.45;;;;;;;15.73;79.05;101953.84;5088295;28;20021;-68
2023/06/07 00:26:39;;;;;;;12.50;8.02;;;;;;;15.71;79.40;101958.25;5079347;28;20090;-67
2023/06/07 00:29:05;;;;;;;12.55;7.68;;;;;;;15.73;78.75;101961.72;5086667;28;20103;-68
2023/06/07 00:31:30;;;;;;;13.60;8.00;;;;;;;15.70;79.48;101961.81;5082448;28;20032;-67
2023/06/07 00:33:55;;;;;;;14.45;7.22;;;;;;;15.67;79.26;101949.59;5083719;28;20124;-68
2023/06/07 00:36:21;;;;;;;12.95;7.72;;;;;;;15.69;79.41;101954.81;5076854;28;20021;-68
2023/06/07 00:38:46;;;;;;;12.98;7.90;;;;;;;15.70;79.49;101967.06;5084051;28;20502;-69
2023/06/07 00:41:11;;;;;;;15.75;7.72;;;;;;;15.63;79.29;101965.44;5083151;28;20487;-68
2023/06/07 00:43:37;;;;;;;14.13;7.57;;;;;;;15.60;78.90;101960.31;5083261;28;20111;-68
2023/06/07 00:46:05;;;;;;;16.42;7.90;;;;;;;15.56;79.73;101958.63;5083415;28;20024;-68
2023/06/07 00:48:31;;;;;;;12.38;7.80;;;;;;;15.57;79.89;101957.75;5082808;28;20032;-68
2023/06/07 00:50:56;;;;;;;12.98;7.43;;;;;;;15.60;80.51;101945.38;5083223;28;20115;-68
2023/06/07 00:53:22;;;;;;;14.60;8.15;;;;;;;15.57;78.95;101950.72;5083822;28;20387;-68
2023/06/07 00:55:47;;;;;;;14.77;7.85;;;;;;;15.51;79.36;101950.03;5082436;28;20475;-68
2023/06/07 00:58:13;;;;;;;11.25;7.28;;;;;;;15.63;79.66;101939.16;5083649;28;20424;-68
2023/06/07 01:00:39;;;;;;;14.02;7.68;;;;;;;15.51;79.01;101943.00;5082001;28;20050;-68
2023/06/07 01:03:05;;;;;;;14.15;7.88;;;;;;;15.56;79.12;101948.97;5081483;28;20025;-67
2023/06/07 01:05:31;;;;;;;13.43;7.28;;;;;;;15.52;80.04;101947.34;5083801;28;20105;-68
2023/06/07 01:07:56;;;;;;;13.40;7.90;;;;;;;15.44;79.84;101946.69;5073786;28;20074;-67
2023/06/07 01:10:22;;;;;;;13.35;7.97;;;;;;;15.43;79.82;101948.47;5082879;28;20177;-68
2023/06/07 01:12:49;;;;;;;15.88;7.70;;;;;;;15.44;80.31;101951.94;5083333;28;20028;-68
2023/06/07 01:15:14;;;;;;;13.20;8.10;;;;;;;15.38;80.25;101946.84;5084814;28;20070;-68
2023/06/07 01:17:44;;;;;;;12.05;8.07;;;;;;;15.35;80.13;101945.16;5083537;28;20111;-68
2023/06/07 01:20:12;;;;;;;13.25;7.80;;;;;;;15.39;80.35;101949.44;5089154;28;20360;-67
2023/06/07 01:22:42;;;;;;;9.98;7.90;;;;;;;15.33;79.77;101946.09;5076796;28;20031;-68
2023/06/07 01:25:08;;;;;;;12.20;7.90;;;;;;;15.34;81.22;101945.22;5073277;28;20043;-67
2023/06/07 01:27:36;;;;;;;18.35;8.40;;;;;;;15.29;80.18;101942.69;5082284;28;20053;-68
2023/06/07 01:30:02;;;;;;;13.25;7.95;;;;;;;15.29;79.92;101944.44;5079693;28;20024;-68
2023/06/07 01:32:29;;;;;;;14.75;7.85;;;;;;;15.29;80.28;101933.94;5086499;28;20039;-68
2023/06/07 01:34:55;;;;;;;13.30;8.13;;;;;;;15.20;80.16;101929.78;5086865;28;20031;-68
2023/06/07 01:37:21;;;;;;;12.00;7.85;;;;;;;15.16;80.77;101939.50;5083073;28;20024;-68
2023/06/07 01:39:48;;;;;;;13.00;7.57;;;;;;;15.16;80.15;101939.50;5079624;28;20032;-68
2023/06/07 01:42:15;;;;;;;11.70;7.45;;;;;;;15.13;80.37;101939.59;5078496;28;20039;-68
2023/06/07 01:44:41;;;;;;;11.45;7.82;;;;;;;15.10;80.86;101939.66;5082997;28;20438;-68
2023/06/07 01:47:07;;;;;;;15.52;7.95;;;;;;;15.04;81.68;101939.84;5086702;28;20028;-68
2023/06/07 01:49:32;;;;;;;15.52;8.40;;;;;;;15.02;82.59;101930.25;5084988;28;20085;-68
2023/06/07 01:51:57;;;;;;;11.98;7.57;;;;;;;14.96;81.67;101928.63;5084695;28;20028;-68
2023/06/07 01:54:23;;;;;;;13.18;7.38;;;;;;;14.91;81.68;101931.38;5084293;28;20548;-67
2023/06/07 01:57:17;;;;;;;14.25;7.80;;;;;;;14.92;80.93;101924.38;5073443;28;20039;-68
2023/06/07 02:00:30;;;;;;;14.05;8.80;;;;;;;14.87;81.18;101934.09;5085055;28;20033;-68
2023/06/07 02:03:05;;;;;;;14.27;8.40;;;;;;;14.78;81.58;101927.34;5064557;28;20040;-68
2023/06/07 02:05:34;;;;;;;13.82;8.68;;;;;;;14.82;82.28;101928.13;5085779;28;20031;-68
2023/06/07 02:08:02;;;;;;;12.68;7.78;;;;;;;14.74;82.46;101929.13;5084477;28;20036;-68
2023/06/07 02:10:30;;;;;;;13.60;7.97;;;;;;;14.64;83.18;101909.25;5086028;28;20365;-68
2023/06/07 02:12:58;;;;;;;14.50;8.45;;;;;;;14.67;82.54;101927.56;5084690;28;20042;-68
2023/06/07 02:15:23;;;;;;;14.38;8.57;;;;;;;14.67;82.83;101926.69;5085543;28;20499;-68
2023/06/07 02:17:58;;;;;;;18.45;8.73;;;;;;;14.67;83.10;101924.06;5085850;28;20028;-68
2023/06/07 02:20:28;;;;;;;11.63;7.80;;;;;;;14.69;83.00;101938.03;5084267;28;20047;-68
2023/06/07 02:22:56;;;;;;;14.45;8.57;;;;;;;14.63;83.10;101931.16;5086070;28;20089;-68
2023/06/07 02:25:21;;;;;;;18.30;9.32;;;;;;;14.58;82.96;101933.00;5084464;28;20485;-68
2023/06/07 02:27:46;;;;;;;14.48;8.77;;;;;;;14.53;83.60;101932.28;5079259;28;20051;-68
2023/06/07 02:30:12;;;;;;;14.07;8.63;;;;;;;14.51;83.67;101932.28;5074374;28;20028;-68
2023/06/07 02:32:38;;;;;;;16.55;8.88;;;;;;;14.47;83.17;101938.47;5077714;28;20029;-68
2023/06/07 02:35:06;;;;;;;14.45;8.45;;;;;;;14.42;83.91;101940.38;5077882;28;20062;-68
2023/06/07 02:37:31;;;;;;;14.23;8.85;;;;;;;14.37;83.72;101923.84;5079339;28;20063;-68
2023/06/07 02:39:57;;;;;;;15.07;9.27;;;;;;;14.38;83.93;101924.69;5084578;28;20067;-68
2023/06/07 02:42:23;;;;;;;12.57;8.52;;;;;;;14.31;84.40;101925.75;5084374;28;20025;-68
2023/06/07 02:44:48;;;;;;;16.75;8.65;;;;;;;14.32;84.47;101930.06;5084399;28;20069;-68
2023/06/07 02:47:13;;;;;;;16.90;8.95;;;;;;;14.33;84.91;101929.19;5085552;28;20033;-68
2023/06/07 02:49:38;;;;;;;17.83;8.75;;;;;;;14.27;84.51;101923.19;5082348;28;20040;-68
2023/06/07 02:52:04;;;;;;;16.27;8.68;;;;;;;14.31;84.85;101921.34;5088784;28;20143;-68
2023/06/07 02:54:29;;;;;;;14.77;8.93;;;;;;;14.29;84.96;101920.53;5081335;28;20369;-67
2023/06/07 02:56:55;;;;;;;19.17;8.82;;;;;;;14.20;84.60;101918.13;5088543;28;20388;-68
2023/06/07 02:59:20;;;;;;;17.67;9.25;;;;;;;14.19;85.18;101930.38;5082113;28;20020;-68
2023/06/07 03:01:46;;;;;;;12.73;8.73;;;;;;;14.20;86.30;101929.47;5087255;28;20035;-68
2023/06/07 03:04:11;;;;;;;15.10;9.35;;;;;;;14.19;86.20;101932.09;5082625;28;20454;-68
2023/06/07 03:06:40;;;;;;;16.15;9.05;;;;;;;14.10;85.81;101927.06;5086376;28;20418;-68
2023/06/07 03:09:06;;;;;;;18.30;9.75;;;;;;;14.10;86.65;101937.56;5083514;28;20078;-68
2023/06/07 03:11:32;;;;;;;19.20;9.73;;;;;;;14.07;86.32;101928.00;5084773;28;20523;-68
2023/06/07 03:13:57;;;;;;;13.80;8.93;;;;;;;14.13;86.07;101933.13;5084677;28;20044;-68
2023/06/07 03:16:23;;;;;;;20.83;9.88;;;;;;;14.13;85.96;101940.97;5082877;28;20032;-68
2023/06/07 03:18:48;;;;;;;14.52;9.13;;;;;;;14.18;86.98;101940.88;5084796;28;20024;-68
2023/06/07 03:21:13;;;;;;;20.13;9.75;;;;;;;14.17;85.66;101940.00;5083814;28;20375;-68
2023/06/07 03:23:38;;;;;;;17.75;9.98;;;;;;;14.11;85.71;101932.28;5084045;28;20054;-68
2023/06/07 03:26:05;;;;;;;14.90;9.27;;;;;;;14.14;86.14;101940.06;5084779;28;20493;-68
2023/06/07 03:28:30;;;;;;;15.65;9.00;;;;;;;14.12;86.04;101943.63;5075398;28;20051;-68
2023/06/07 03:30:55;;;;;;;17.98;9.85;;;;;;;14.09;86.37;101936.66;5073516;28;20028;-68
2023/06/07 03:33:21;;;;;;;17.15;9.35;;;;;;;14.06;86.69;101928.91;5084942;28;20063;-68
2023/06/07 03:35:46;;;;;;;13.77;8.93;;;;;;;14.10;86.49;101937.56;5080946;28;20094;-68
2023/06/07 03:38:11;;;;;;;23.33;9.60;;;;;;;14.03;86.92;101936.81;5082012;28;20036;-68
2023/06/07 03:40:36;;;;;;;14.68;9.02;;;;;;;13.99;86.55;101929.91;5081915;28;20031;-68
2023/06/07 03:43:02;;;;;;;16.05;9.18;;;;;;;14.05;86.07;101935.00;5083977;28;20024;-68
2023/06/07 03:45:27;;;;;;;16.35;8.73;;;;;;;13.92;86.71;101934.41;5083496;28;20524;-68
2023/06/07 03:47:53;;;;;;;15.63;9.52;;;;;;;13.95;86.63;101938.72;5083109;28;20083;-68
2023/06/07 03:50:19;;;;;;;18.00;9.02;;;;;;;13.98;86.98;101939.53;5083784;28;20069;-68
2023/06/07 03:52:45;;;;;;;18.70;9.45;;;;;;;14.00;87.12;101939.50;5081882;28;20024;-68
2023/06/07 03:55:10;;;;;;;17.25;9.25;;;;;;;13.95;86.61;101936.09;5084580;28;20085;-68
2023/06/07 03:57:35;;;;;;;13.27;8.38;;;;;;;14.00;86.53;101943.00;5083213;28;20024;-68
2023/06/07 04:00:01;;;;;;;21.08;9.68;;;;;;;13.93;86.04;101945.75;5082590;28;20613;-68
2023/06/07 04:02:27;;;;;;;16.48;9.65;;;;;;;13.85;86.56;101948.53;5086212;28;20103;-68
2023/06/07 04:04:54;;;;;;;15.18;8.77;;;;;;;13.81;87.06;101939.84;5080446;28;20048;-68
2023/06/07 04:07:19;;;;;;;15.90;8.80;;;;;;;13.82;87.23;101944.19;5074217;28;20112;-68
2023/06/07 04:09:45;;;;;;;16.60;8.82;;;;;;;13.77;86.87;101951.31;5080461;28;20040;-68
2023/06/07 04:12:10;;;;;;;17.55;9.18;;;;;;;13.75;87.63;101950.47;5087099;28;20372;-68
2023/06/07 04:14:36;;;;;;;14.68;8.85;;;;;;;13.71;87.20;101946.19;5080800;28;20032;-68
2023/06/07 04:17:01;;;;;;;17.48;8.77;;;;;;;13.70;86.87;101952.31;5087048;28;20376;-68
2023/06/07 04:19:26;;;;;;;20.40;9.45;;;;;;;13.58;87.59;101942.91;5080647;28;20034;-68
2023/06/07 04:21:52;;;;;;;19.30;9.57;;;;;;;13.61;87.97;101947.25;5085189;28;20062;-68
2023/06/07 04:24:18;;;;;;;16.00;8.20;;;;;;;13.67;88.53;101939.28;5083660;28;20357;-68
2023/06/07 04:26:44;;;;;;;18.02;8.85;;;;;;;13.70;88.56;101944.47;5078169;28;20037;-68
2023/06/07 04:29:10;;;;;;;18.65;8.40;;;;;;;13.80;87.64;101945.16;5076120;28;20036;-68
2023/06/07 04:31:39;;;;;;;18.00;8.75;;;;;;;13.80;87.70;101943.38;5083988;28;20039;-68
2023/06/07 04:34:04;;;;;;;14.35;8.90;;;;;;;13.86;87.28;101946.75;5079731;28;20020;-68
2023/06/07 04:36:30;;;;;;;16.15;8.88;;;;;;;13.95;86.31;101949.22;5082761;28;20120;-67
2023/06/07 04:38:55;;;;;;;14.90;8.93;;;;;;;14.00;85.67;101948.22;5082970;28;20024;-67
2023/06/07 04:41:25;;;;;;;15.90;9.00;;;;;;;14.12;86.62;101941.84;5084348;28;20467;-70
2023/06/07 04:43:51;;;;;;;17.65;8.82;;;;;;;14.11;85.92;101940.13;5080818;28;20028;-70
2023/06/07 04:46:18;;;;;;;14.38;8.30;;;;;;;14.11;85.53;101923.53;5083266;28;20495;-70
2023/06/07 04:48:43;;;;;;;14.35;8.48;;;;;;;14.20;85.13;101936.47;5083961;28;20042;-70
2023/06/07 04:51:09;;;;;;;13.93;8.40;;;;;;;14.09;84.33;101925.31;5086318;28;20020;-70
2023/06/07 04:53:36;;;;;;;12.35;8.18;;;;;;;14.29;85.63;101959.88;5087302;28;20375;-70
2023/06/07 04:56:02;;;;;;;21.30;9.25;;;;;;;14.23;84.96;101949.53;5085319;28;20027;-70
2023/06/07 04:58:27;;;;;;;18.50;8.75;;;;;;;14.09;85.05;101944.53;5087714;28;20024;-70
2023/06/07 05:00:53;;;;;;;16.40;8.10;;;;;;;14.09;84.61;101949.78;5084573;28;20030;-70
2023/06/07 05:03:24;;;;;;;18.50;9.55;;;;;;;14.04;85.52;101955.13;5087737;28;20047;-70
2023/06/07 05:05:50;;;;;;;14.88;8.13;;;;;;;14.05;85.29;101961.22;5086181;28;20028;-70
2023/06/07 05:08:16;;;;;;;13.70;8.43;;;;;;;14.01;85.88;101949.09;5086089;28;20035;-70
2023/06/07 05:10:41;;;;;;;17.63;9.27;;;;;;;13.97;85.94;101961.41;5087154;28;20031;-70
2023/06/07 05:13:07;;;;;;;15.10;8.52;;;;;;;13.96;85.32;101956.16;5085157;28;20032;-70
2023/06/07 05:15:33;;;;;;;14.18;8.02;;;;;;;14.00;85.54;101957.84;5086792;28;20031;-70
2023/06/07 05:17:59;;;;;;;13.77;9.10;;;;;;;13.94;85.52;101964.09;5086641;28;20099;-70
2023/06/07 05:20:24;;;;;;;16.00;8.07;;;;;;;13.96;85.63;101957.06;5085984;28;20024;-70
2023/06/07 05:22:50;;;;;;;16.65;8.80;;;;;;;14.05;85.71;101963.84;5088046;28;20024;-70
2023/06/07 05:25:16;;;;;;;18.27;8.52;;;;;;;14.19;85.67;101960.94;5083652;28;20115;-70
2023/06/07 05:27:42;;;;;;;17.95;8.60;;;;;;;14.20;84.98;101973.19;5086504;28;20491;-70
2023/06/07 05:30:08;;;;;;;15.90;8.40;;;;;;;14.24;84.67;101977.47;5085272;28;20028;-70
2023/06/07 05:32:34;;;;;;;13.85;8.13;;;;;;;14.25;84.92;101964.31;5085238;28;20033;-70
2023/06/07 05:35:01;;;;;;;13.32;8.23;;;;;;;14.28;84.08;101966.00;5086820;28;20023;-70
2023/06/07 05:37:29;;;;;;;13.07;8.55;;;;;;;14.35;84.79;101964.13;5082410;28;20040;-70
2023/06/07 05:39:54;;;;;;;15.50;9.32;;;;;;;14.35;85.03;101967.59;5070222;28;20077;-70
2023/06/07 05:42:19;;;;;;;19.40;9.32;;;;;;;14.36;85.11;101969.34;5085969;28;20024;-70
2023/06/07 05:44:48;;;;;;;14.30;8.98;;;;;;;14.32;84.53;101967.66;5084097;28;20036;-70
2023/06/07 05:47:14;;;;;;;14.15;8.00;;;;;;;14.38;85.31;101980.66;5087421;28;20495;-70
2023/06/07 05:49:42;;;;;;;15.23;8.95;;;;;;;14.40;85.68;101968.38;5082448;28;20036;-70
2023/06/07 05:52:07;;;;;;;20.25;9.18;;;;;;;14.46;84.35;101975.25;5077660;28;20031;-70
2023/06/07 05:54:33;;;;;;;16.70;9.18;;;;;;;14.42;84.66;101984.06;5083452;28;20032;-70
2023/06/07 05:56:58;;;;;;;17.67;9.52;;;;;;;14.44;84.07;101991.03;5088672;28;20036;-70
2023/06/07 05:59:23;;;;;;;18.52;8.60;;;;;;;14.40;84.94;101984.13;5082898;28;20111;-69
2023/06/07 06:01:49;;;;;;;16.13;8.75;;;;;;;14.41;84.27;101977.09;5089023;28;20035;-70
2023/06/07 06:04:16;;;;;;;18.08;9.02;;;;;;;14.46;85.20;101983.13;5082930;28;20043;-70
2023/06/07 06:06:41;;;;;;;11.20;8.13;;;;;;;14.47;84.02;101983.09;5087365;28;20016;-70
2023/06/07 06:09:07;;;;;;;15.65;9.35;;;;;;;14.58;84.54;101982.00;5084980;28;20065;-70
2023/06/07 06:11:32;;;;;;;16.20;8.82;;;;;;;14.66;85.36;101986.22;5085183;28;20434;-70
2023/06/07 06:13:57;;;;;;;16.90;8.98;;;;;;;14.65;83.49;101989.75;5086153;28;20435;-70
2023/06/07 06:16:22;;;;;;;17.50;9.55;;;;;;;14.64;82.83;101982.75;5084794;28;20444;-70
2023/06/07 06:18:48;;;;;;;19.23;9.48;;;;;;;14.68;83.67;101989.69;5085361;28;20063;-70
2023/06/07 06:21:14;;;;;;;11.27;8.95;;;;;;;14.75;84.12;101988.63;5084574;28;20032;-70
2023/06/07 06:23:39;;;;;;;14.95;9.18;;;;;;;14.80;82.29;101977.16;5085667;28;20144;-70
2023/06/07 06:26:04;;;;;;;16.90;9.23;;;;;;;14.79;82.77;101986.81;5085544;28;20052;-70
2023/06/07 06:28:30;;;;;;;16.85;8.93;;;;;;;14.85;82.43;101989.28;5076909;28;20067;-70
2023/06/07 06:30:55;;;;;;;14.23;8.68;;;;;;;14.88;81.12;101991.00;5077838;28;20059;-70
2023/06/07 06:33:20;;;;;;;17.55;9.15;;;;;;;14.97;81.27;101996.84;5085149;28;20020;-70
2023/06/07 06:35:47;;;;;;;17.00;8.70;;;;;;;15.17;80.48;102001.66;5083047;28;20050;-70
2023/06/07 06:38:12;;;;;;;15.10;8.60;;;;;;;15.30;78.21;101996.94;5086221;28;20024;-70
2023/06/07 06:40:38;;;;;;;18.63;8.52;;;;;;;15.40;78.75;101995.84;5082211;28;20035;-70
2023/06/07 06:43:03;;;;;;;15.23;8.60;;;;;;;15.49;77.58;101999.13;5085936;28;20026;-70
2023/06/07 06:45:28;;;;;;;16.27;9.20;;;;;;;15.39;77.37;101993.22;5084094;28;20020;-70
2023/06/07 06:47:54;;;;;;;18.27;9.77;;;;;;;15.34;77.29;101997.75;5083910;28;20047;-70
2023/06/07 06:50:19;;;;;;;18.60;9.23;;;;;;;15.32;77.60;102000.41;5085742;28;20020;-70
2023/06/07 06:52:45;;;;;;;17.80;9.10;;;;;;;15.37;77.86;102000.31;5082136;28;20511;-71
2023/06/07 06:55:10;;;;;;;15.43;9.20;;;;;;;15.34;78.93;102009.13;5085780;28;20073;-70
2023/06/07 06:57:35;;;;;;;17.70;8.70;;;;;;;15.41;77.60;102009.84;5085159;28;20511;-70
2023/06/07 07:00:10;;;;;;;15.93;8.82;;;;;;;15.51;78.10;102011.31;5082889;28;20032;-70
2023/06/07 07:02:36;;;;;;;15.32;8.40;;;;;;;15.70;79.10;102010.91;5085730;28;20472;-70
2023/06/07 07:05:03;;;;;;;16.02;8.73;;;;;;;15.82;77.17;102015.81;5082764;28;20032;-70
2023/06/07 07:07:29;;;;;;;13.38;8.18;;;;;;;15.89;75.46;102031.41;5086472;28;20028;-70
2023/06/07 07:09:54;;;;;;;14.73;9.00;;;;;;;15.97;76.43;102031.19;5081650;28;20483;-70
2023/06/07 07:12:21;;;;;;;16.77;9.40;;;;;;;16.01;75.17;102018.81;5088110;28;20024;-70
2023/06/07 07:14:46;;;;;;;13.52;8.95;;;;;;;16.13;74.92;102029.88;5080868;28;20051;-70
2023/06/07 07:17:12;;;;;;;14.25;8.25;;;;;;;16.26;74.20;102025.13;5088766;28;20145;-70
2023/06/07 07:19:37;;;;;;;16.40;8.25;;;;;;;16.46;73.69;102021.06;5081376;28;20060;-70
2023/06/07 07:22:03;;;;;;;12.57;8.73;;;;;;;16.57;72.57;102024.22;5086810;28;20059;-70
2023/06/07 07:24:28;;;;;;;15.90;9.73;;;;;;;16.57;71.12;102019.81;5082724;28;20103;-70
2023/06/07 07:26:53;;;;;;;14.85;8.43;;;;;;;16.61;72.62;102033.75;5078913;28;20044;-70
2023/06/07 07:29:19;;;;;;;17.98;9.30;;;;;;;16.62;71.36;102027.59;5069272;28;20473;-70
2023/06/07 07:31:44;;;;;;;15.65;8.73;;;;;;;16.76;71.31;102035.97;5086643;28;20107;-70
2023/06/07 07:34:10;;;;;;;15.38;8.75;;;;;;;16.77;70.57;102026.28;5081419;28;20082;-70
2023/06/07 07:36:36;;;;;;;19.80;9.00;;;;;;;16.84;71.98;102027.84;5086184;28;20020;-70
2023/06/07 07:39:05;;;;;;;15.55;8.60;;;;;;;16.83;70.20;102016.41;5082764;28;20036;-70
2023/06/07 07:41:34;;;;;;;14.57;8.55;;;;;;;16.80;69.80;102020.94;5087747;28;20032;-70
2023/06/07 07:44:00;;;;;;;16.33;8.00;;;;;;;16.73;70.22;102008.81;5077370;28;20024;-70
2023/06/07 07:46:26;;;;;;;17.63;9.10;;;;;;;16.71;69.33;102026.44;5086022;28;20387;-70
2023/06/07 07:48:51;;;;;;;16.48;8.95;;;;;;;16.67;69.53;102028.28;5082106;28;20028;-70
2023/06/07 07:51:16;;;;;;;14.23;8.50;;;;;;;16.76;72.29;102035.09;5083400;28;20028;-70
2023/06/07 07:53:42;;;;;;;17.50;9.07;;;;;;;16.96;71.62;102032.72;5083932;28;20032;-70
2023/06/07 07:56:07;;;;;;;18.83;8.55;;;;;;;17.03;69.75;102034.22;5081525;28;20024;-70
2023/06/07 07:58:32;;;;;;;13.98;8.20;;;;;;;17.13;69.64;102039.22;5084635;28;20035;-70
2023/06/07 08:00:58;;;;;;;16.58;8.98;;;;;;;17.16;69.49;102039.97;5082219;28;20025;-70
2023/06/07 08:03:23;;;;;;;18.60;7.85;;;;;;;17.40;68.96;102029.56;5083510;28;20032;-70
2023/06/07 08:05:48;;;;;;;20.42;8.95;;;;;;;17.58;68.59;102025.44;5083349;28;20353;-70
2023/06/07 08:08:16;;;;;;;14.73;8.05;;;;;;;17.77;68.67;102016.03;5083204;28;20499;-70
2023/06/07 08:10:42;;;;;;;15.70;8.35;;;;;;;18.18;65.09;102035.66;5083352;28;20437;-70
2023/06/07 08:13:08;;;;;;;19.15;8.90;;;;;;;18.54;63.84;102031.69;5082520;28;20512;-70
2023/06/07 08:15:33;;;;;;;15.70;8.32;;;;;;;18.88;61.94;102026.03;5084207;28;20020;-70
2023/06/07 08:17:58;;;;;;;16.50;7.90;;;;;;;19.27;62.86;102027.97;5082723;28;20030;-70
2023/06/07 08:20:23;;;;;;;22.63;9.25;;;;;;;19.57;60.68;102017.91;5082738;28;20089;-70
2023/06/07 08:22:50;;;;;;;16.17;8.85;;;;;;;19.65;60.51;102007.88;5085795;28;20104;-76
2023/06/07 08:25:16;;;;;;;14.95;7.97;;;;;;;19.87;60.11;102008.66;5080208;28;20030;-76
2023/06/07 08:27:42;;;;;;;17.58;8.57;;;;;;;19.95;60.26;102020.72;5077560;28;20507;-71
2023/06/07 08:30:08;;;;;;;18.77;8.95;;;;;;;19.87;58.74;102027.19;5082672;28;20063;-70
2023/06/07 08:32:33;;;;;;;17.33;8.77;;;;;;;19.56;56.62;102021.47;5081814;28;20064;-70
2023/06/07 08:34:58;;;;;;;11.00;7.43;;;;;;;19.37;59.78;102016.94;5083897;28;20091;-70
2023/06/07 08:37:24;;;;;;;13.82;8.15;;;;;;;19.13;58.17;102015.34;5084088;28;20067;-70
2023/06/07 08:39:49;;;;;;;14.80;8.20;;;;;;;18.98;60.82;102015.94;5082454;28;20051;-70
2023/06/07 08:42:14;;;;;;;15.95;9.05;;;;;;;19.01;61.30;102016.69;5083587;28;20082;-70
2023/06/07 08:44:40;;;;;;;14.30;7.90;;;;;;;19.15;61.75;102013.47;5081004;28;20082;-70
2023/06/07 08:47:06;;;;;;;14.23;8.75;;;;;;;19.01;59.74;102013.19;5084930;28;20376;-70
2023/06/07 08:49:36;;;;;;;15.70;7.80;;;;;;;19.09;62.08;102013.72;5080593;28;20020;-70
2023/06/07 08:52:02;;;;;;;14.52;8.57;;;;;;;19.27;62.39;102018.25;5086876;28;20028;-70
2023/06/07 08:54:29;;;;;;;15.10;8.90;;;;;;;19.48;63.47;102013.84;5079618;28;20476;-70
2023/06/07 08:56:55;;;;;;;17.17;7.97;;;;;;;19.51;61.29;102007.56;5086865;28;20036;-70
2023/06/07 08:59:24;;;;;;;14.77;8.93;;;;;;;19.54;60.35;102018.03;5079887;28;20143;-70
2023/06/07 09:01:49;;;;;;;14.65;8.07;;;;;;;19.69;61.07;102025.34;5080049;28;20020;-70
2023/06/07 09:04:16;;;;;;;14.13;8.15;;;;;;;19.79;59.98;102017.88;5080644;28;20028;-70
2023/06/07 09:06:43;;;;;;;14.30;8.60;;;;;;;19.79;57.80;102021.38;5084355;28;20233;-71
2023/06/07 09:09:08;;;;;;;19.90;9.38;;;;;;;19.73;57.79;102005.78;5081974;28;20040;-71
2023/06/07 09:11:33;;;;;;;15.77;8.52;;;;;;;19.61;59.76;102016.84;5083632;28;20028;-70
2023/06/07 09:13:59;;;;;;;16.42;8.32;;;;;;;19.50;61.38;102016.44;5082525;28;20058;-70
2023/06/07 09:16:25;;;;;;;13.15;7.97;;;;;;;19.74;60.15;102011.91;5081995;28;20471;-71
2023/06/07 09:18:53;;;;;;;15.02;8.52;;;;;;;20.18;58.31;102019.69;5083431;28;20439;-70
2023/06/07 09:21:26;;;;;;;16.73;8.75;;;;;;;20.33;57.49;102011.88;5081205;28;20375;-70
2023/06/07 09:23:52;;;;;;;15.00;7.57;;;;;;;20.70;58.19;102012.00;5083307;28;20035;-70
2023/06/07 09:26:19;;;;;;;15.73;8.63;;;;;;;20.92;56.38;102006.53;5082755;28;20031;-69
2023/06/07 09:28:47;;;;;;;16.45;9.10;;;;;;;20.95;54.99;102014.34;5073385;28;20507;-68
2023/06/07 09:31:13;;;;;;;16.92;8.88;;;;;;;20.90;54.68;102009.28;5085158;28;20017;-68
2023/06/07 09:33:39;;;;;;;14.30;7.95;;;;;;;21.02;55.48;102015.75;5080338;28;20115;-69
2023/06/07 09:36:10;;;;;;;15.77;7.68;;;;;;;20.91;54.61;102015.44;5086008;28;20056;-68
2023/06/07 09:38:36;;;;;;;15.48;8.82;;;;;;;20.89;54.29;102007.53;5082203;28;20480;-68
2023/06/07 09:41:03;;;;;;;16.63;7.82;;;;;;;20.84;53.86;102006.06;5085723;28;20030;-69
2023/06/07 09:43:55;;;;;;;14.02;8.32;;;;;;;21.00;54.73;102007.03;5086347;28;20059;-69
2023/06/07 09:46:21;;;;;;;13.73;8.43;;;;;;;21.19;53.58;102010.50;5083148;28;20059;-68
2023/06/07 09:48:53;;;;;;;20.77;8.80;;;;;;;21.40;52.52;102005.06;5084025;28;20044;-69
2023/06/07 09:51:20;;;;;;;17.10;8.65;;;;;;;21.71;53.12;102005.22;5087151;28;20099;-68
2023/06/07 09:53:54;;;;;;;17.80;9.48;;;;;;;21.97;51.46;102002.97;5085860;28;20023;-68
2023/06/07 09:56:21;;;;;;;20.83;9.18;;;;;;;22.01;50.94;102001.03;5079168;28;20031;-68
2023/06/07 09:58:49;;;;;;;20.05;9.25;;;;;;;22.18;50.90;102001.88;5086042;28;20556;-68
2023/06/07 10:01:35;;;;;;;16.20;9.27;;;;;;;22.41;50.61;102011.25;5084329;28;20028;-68
2023/06/07 10:04:02;;;;;;;18.70;9.05;;;;;;;22.60;48.98;102004.94;5083919;28;20043;-68
2023/06/07 10:06:32;;;;;;;17.40;8.98;;;;;;;22.60;49.21;102010.25;5079583;28;20031;-68
2023/06/07 10:09:00;;;;;;;16.15;8.77;;;;;;;22.51;48.36;102008.94;5086180;28;20045;-68
2023/06/07 10:11:27;;;;;;;15.40;9.38;;;;;;;22.54;48.76;102013.25;5084875;28;20035;-69
2023/06/07 10:13:53;;;;;;;15.82;9.07;;;;;;;22.72;49.32;101995.41;5085892;28;20138;-68
2023/06/07 10:16:19;;;;;;;19.45;9.25;;;;;;;23.02;51.25;102000.81;5085013;28;20047;-69
2023/06/07 10:18:49;;;;;;;17.55;8.70;;;;;;;23.03;49.80;101997.22;5085044;28;20471;-68
2023/06/07 10:21:19;;;;;;;15.57;9.23;;;;;;;22.87;47.32;101999.84;5085045;28;20057;-69
2023/06/07 10:23:53;;;;;;;13.13;8.40;;;;;;;22.75;49.79;101993.41;5085335;28;20024;-69
2023/06/07 10:26:25;;;;;;;14.15;9.23;;;;;;;22.71;48.36;101997.22;5085161;28;20024;-68
2023/06/07 10:29:03;;;;;;;12.65;8.05;;;;;;;22.70;49.19;101997.31;5076909;28;20468;-69
2023/06/07 10:31:34;;;;;;;16.88;8.95;;;;;;;22.74;48.36;102009.47;5087973;28;20379;-69
2023/06/07 10:34:07;;;;;;;18.13;8.50;;;;;;;22.51;48.30;102003.63;5082713;28;20108;-68
2023/06/07 10:36:36;;;;;;;17.80;9.93;;;;;;;22.20;48.85;101993.81;5088490;28;20487;-69
2023/06/07 10:39:02;;;;;;;17.88;9.30;;;;;;;22.09;50.79;101991.72;5079739;28;20488;-68
2023/06/07 10:41:28;;;;;;;15.23;8.95;;;;;;;22.15;49.79;102002.03;5088845;28;20055;-69
2023/06/07 10:43:54;;;;;;;15.63;9.30;;;;;;;22.10;51.07;102005.84;5081787;28;20029;-69
2023/06/07 10:46:23;;;;;;;16.33;9.40;;;;;;;22.02;50.46;102000.97;5086383;28;20073;-69
2023/06/07 10:48:49;;;;;;;17.17;9.32;;;;;;;22.04;51.38;101999.09;5083549;28;20475;-69
2023/06/07 10:51:15;;;;;;;14.77;9.60;;;;;;;22.26;50.99;101993.50;5085590;28;20084;-68
2023/06/07 10:53:54;;;;;;;16.70;9.63;;;;;;;22.37;50.96;101995.59;5084827;28;20020;-69
2023/06/07 10:56:33;;;;;;;17.13;8.73;;;;;;;22.48;51.59;101997.63;5078696;28;20016;-69
2023/06/07 10:59:13;;;;;;;17.02;10.05;;;;;;;22.41;51.33;101997.97;5082690;28;20050;-69
2023/06/07 11:01:39;;;;;;;15.98;9.38;;;;;;;22.34;50.04;101995.75;5087245;28;20107;-68
2023/06/07 11:04:05;;;;;;;17.25;9.68;;;;;;;22.31;50.83;101996.75;5083159;28;20067;-68
2023/06/07 11:06:33;;;;;;;15.95;9.60;;;;;;;22.24;51.28;101991.88;5085090;28;20039;-69
2023/06/07 11:09:18;;;;;;;15.35;9.75;;;;;;;22.19;52.08;101992.97;5084664;28;20089;-69
2023/06/07 11:11:43;;;;;;;16.63;9.27;;;;;;;21.92;51.32;101994.41;5081270;28;20028;-69
2023/06/07 11:14:10;;;;;;;12.23;9.23;;;;;;;21.69;52.04;102000.94;5083644;28;20379;-68
2023/06/07 11:16:36;;;;;;;14.38;9.52;;;;;;;21.54;52.80;101999.91;5084919;28;20020;-68